KCVN

Clovis Municipal Airport

Clovis, New Mexico, USA
METAR KCVN 161756Z AUTO 26024G29KT 10SM CLR 16/02 A3011 RMK AO2 PK WND 27033/1725 SLP183 T01610017 10161 20028 58005
Observed Flight Rules
Jan-16 @ 17:56 UTC (29 minutes ago) Visual Flight Rules
Wind Visibility Clouds
260° at 24 knots
 Gusting to 29 knots
10 miles
  • Clear skies
Temperatures Readings
Current 16°C / 61°F
Dewpoint 2°C / 36°F
Humidity 39%
Altimeter 30.11" Hg
Pressure 1018.3 hPa
Elevation 1284
METAR KCVN 161756Z AUTO 26024G29KT 10SM CLR 16/02 A3011 RMK AO2 PK WND 27033/1725 SLP183 T01610017 10161 20028 58005
Observed Flight Rules
Jan-16 @ 17:56 UTC
(29 minutes ago)
VFR
Wind Visibility
260° at 24 knots
 Gusting to 29 knots
10 miles
Clouds
  • Clear skies
Temperature Dewpoint
16°C / 61°F 2°C / 36°F
Humidity Altimeter Pressure
39% 30.11" Hg 1018.3 hPa